createdAt,value
2023-01-18T00:00:18.175Z,96.76
2023-01-18T00:02:46.885Z,96.43
2023-01-18T00:05:14.720Z,96.23
2023-01-18T00:07:42.337Z,97.06
2023-01-18T00:10:10.940Z,97.38
2023-01-18T00:12:38.497Z,97.55
2023-01-18T00:15:09.185Z,97.75
2023-01-18T00:17:47.377Z,97.35
2023-01-18T00:20:15.345Z,96.98
2023-01-18T00:22:42.966Z,96.81
2023-01-18T00:25:11.717Z,96.96
2023-01-18T00:27:39.355Z,97.49
2023-01-18T00:30:10.966Z,97.67
2023-01-18T00:32:38.749Z,98.13
2023-01-18T00:35:08.148Z,97.95
2023-01-18T00:37:36.482Z,98.60
2023-01-18T00:40:07.084Z,98.43
2023-01-18T00:42:51.964Z,98.80
2023-01-18T00:45:21.030Z,98.43
2023-01-18T00:47:48.605Z,98.28
2023-01-18T00:50:16.453Z,97.77
2023-01-18T00:52:46.206Z,98.01
2023-01-18T00:55:15.067Z,98.14
2023-01-18T00:57:43.477Z,97.99
2023-01-18T01:00:15.020Z,98.63
2023-01-18T01:02:44.115Z,97.76
2023-01-18T01:05:35.164Z,97.87
2023-01-18T01:08:03.413Z,98.04
2023-01-18T01:10:31.212Z,97.58
2023-01-18T01:13:16.318Z,97.31
2023-01-18T01:16:01.876Z,97.02
2023-01-18T01:18:48.375Z,96.63
2023-01-18T01:21:33.717Z,97.12
2023-01-18T01:24:19.100Z,97.13
2023-01-18T01:26:46.604Z,97.10
2023-01-18T01:29:14.164Z,97.23
2023-01-18T01:31:41.734Z,96.66
2023-01-18T01:34:10.831Z,96.83
2023-01-18T01:36:38.437Z,96.88
2023-01-18T01:39:06.965Z,97.07
2023-01-18T01:41:36.310Z,96.61
2023-01-18T01:44:27.948Z,95.20
2023-01-18T01:46:59.432Z,96.15
2023-01-18T01:49:32.129Z,96.89
2023-01-18T01:52:03.781Z,97.02
2023-01-18T01:54:35.448Z,96.81
2023-01-18T01:57:10.465Z,96.62
2023-01-18T01:59:48.159Z,96.95
2023-01-18T02:02:17.589Z,96.54
2023-01-18T02:04:46.433Z,96.56
2023-01-18T02:07:14.643Z,96.66
2023-01-18T02:09:42.604Z,96.28
2023-01-18T02:12:10.227Z,95.77
2023-01-18T02:14:37.892Z,95.87
2023-01-18T02:17:22.693Z,95.92
2023-01-18T02:20:25.872Z,95.45
2023-01-18T02:23:22.312Z,95.75
2023-01-18T02:26:21.741Z,96.11
2023-01-18T02:28:59.982Z,96.37
2023-01-18T02:31:35.298Z,96.18
2023-01-18T02:34:07.639Z,96.12
2023-01-18T02:36:42.038Z,96.79
2023-01-18T02:39:23.432Z,96.87
2023-01-18T02:42:15.000Z,97.51
2023-01-18T02:45:06.285Z,97.34
2023-01-18T02:47:34.835Z,96.95
2023-01-18T02:50:03.593Z,96.83
2023-01-18T02:52:42.410Z,96.74
2023-01-18T02:55:15.418Z,96.70
2023-01-18T02:57:44.247Z,95.98
2023-01-18T03:00:18.999Z,95.83
2023-01-18T03:02:49.073Z,96.39
2023-01-18T03:05:18.098Z,95.99
2023-01-18T03:07:51.789Z,96.96
2023-01-18T03:10:19.448Z,97.18
2023-01-18T03:12:57.517Z,96.72
2023-01-18T03:15:37.326Z,97.01
2023-01-18T03:18:11.867Z,97.68
2023-01-18T03:20:46.942Z,97.33
2023-01-18T03:23:36.140Z,97.43
2023-01-18T03:26:06.418Z,98.11
2023-01-18T03:28:54.038Z,98.31
2023-01-18T03:31:47.240Z,98.39
2023-01-18T03:34:22.479Z,98.76
2023-01-18T03:36:53.350Z,98.56
2023-01-18T03:39:28.308Z,98.03
2023-01-18T03:42:00.273Z,97.77
2023-01-18T03:44:34.418Z,98.13
2023-01-18T03:47:04.741Z,97.84
2023-01-18T03:49:33.555Z,98.21
2023-01-18T03:52:14.012Z,97.18
2023-01-18T03:54:50.688Z,96.84
2023-01-18T03:57:24.071Z,97.13
2023-01-18T03:59:52.563Z,97.70
2023-01-18T04:02:21.884Z,96.86
2023-01-18T04:04:49.579Z,97.26
2023-01-18T04:07:17.227Z,97.20
2023-01-18T04:09:44.799Z,97.53
2023-01-18T04:12:12.340Z,98.01
2023-01-18T04:14:39.930Z,97.83
2023-01-18T04:17:07.452Z,97.08
2023-01-18T04:19:36.394Z,97.71
2023-01-18T04:22:03.996Z,97.93
2023-01-18T04:24:31.556Z,98.70
2023-01-18T04:26:59.166Z,98.17
2023-01-18T04:29:26.889Z,97.37
2023-01-18T04:31:54.744Z,97.81
2023-01-18T04:34:22.972Z,97.34
2023-01-18T04:36:52.522Z,98.04
2023-01-18T04:39:20.781Z,98.56
2023-01-18T04:41:48.382Z,98.20
2023-01-18T04:44:16.160Z,99.29
2023-01-18T04:46:44.283Z,97.79
2023-01-18T04:49:15.434Z,98.17
2023-01-18T04:51:43.915Z,97.83
2023-01-18T04:54:14.345Z,98.13
2023-01-18T04:56:42.148Z,97.67
2023-01-18T04:59:14.200Z,98.42
2023-01-18T05:01:41.761Z,98.53
2023-01-18T05:04:09.370Z,98.89
2023-01-18T05:06:36.927Z,98.07
2023-01-18T05:09:04.589Z,98.38
2023-01-18T05:11:33.579Z,98.32
2023-01-18T05:14:01.073Z,98.59
2023-01-18T05:16:28.878Z,98.54
2023-01-18T05:18:56.758Z,98.00
2023-01-18T05:21:24.386Z,98.70
2023-01-18T05:23:51.921Z,99.48
2023-01-18T05:26:21.530Z,99.45
2023-01-18T05:28:51.249Z,98.09
2023-01-18T05:31:21.037Z,98.53
2023-01-18T05:33:48.901Z,98.58
2023-01-18T05:36:17.017Z,98.62
2023-01-18T05:38:44.578Z,98.93
2023-01-18T05:41:12.127Z,99.48
2023-01-18T05:43:40.428Z,98.84
2023-01-18T05:46:09.499Z,99.00
2023-01-18T05:48:37.078Z,99.00
2023-01-18T05:51:08.763Z,98.48
2023-01-18T05:53:36.351Z,98.85
2023-01-18T05:56:08.261Z,98.14
2023-01-18T05:58:35.937Z,97.46
2023-01-18T06:01:03.609Z,98.62
2023-01-18T06:03:32.476Z,98.06
2023-01-18T06:06:00.098Z,98.11
2023-01-18T06:08:27.637Z,98.46
2023-01-18T06:10:55.517Z,98.87
2023-01-18T06:13:23.689Z,98.36
2023-01-18T06:15:51.849Z,98.46
2023-01-18T06:18:19.356Z,99.34
2023-01-18T06:20:48.288Z,99.36
2023-01-18T06:23:15.909Z,97.22
2023-01-18T06:25:44.029Z,96.90
2023-01-18T06:28:11.561Z,99.53
2023-01-18T06:30:39.643Z,100.00
2023-01-18T06:33:08.407Z,100.00
2023-01-18T06:35:36.359Z,99.40
2023-01-18T06:38:06.001Z,97.41
2023-01-18T06:40:33.712Z,97.64
2023-01-18T06:43:01.676Z,96.60
2023-01-18T06:45:29.744Z,96.40
2023-01-18T06:47:57.454Z,94.58
2023-01-18T06:50:25.589Z,94.61
2023-01-18T06:52:53.447Z,97.95
2023-01-18T06:55:22.569Z,96.53
2023-01-18T06:57:50.089Z,96.06
2023-01-18T07:00:18.690Z,95.16
2023-01-18T07:02:46.220Z,96.67
2023-01-18T07:05:13.790Z,95.75
2023-01-18T07:07:41.328Z,94.34
2023-01-18T07:10:10.375Z,94.57
2023-01-18T07:12:39.285Z,94.74
2023-01-18T07:15:20.841Z,95.64
2023-01-18T07:17:50.201Z,95.66
2023-01-18T07:20:18.160Z,95.71
2023-01-18T07:22:45.819Z,96.32
2023-01-18T07:25:18.780Z,96.12
2023-01-18T07:27:48.736Z,96.75
2023-01-18T07:30:17.220Z,97.71
2023-01-18T07:32:49.628Z,97.37
2023-01-18T07:35:21.913Z,97.21
2023-01-18T07:37:50.489Z,97.20
2023-01-18T07:40:18.554Z,98.01
2023-01-18T07:42:47.577Z,97.80
2023-01-18T07:45:15.615Z,97.94
2023-01-18T07:47:43.467Z,98.30
2023-01-18T07:50:12.905Z,96.89
2023-01-18T07:52:40.608Z,96.19
2023-01-18T07:55:08.936Z,95.83
2023-01-18T07:57:36.460Z,96.50
2023-01-18T08:00:07.109Z,97.31
2023-01-18T08:02:40.389Z,96.57
2023-01-18T08:05:09.877Z,94.87
2023-01-18T08:07:37.863Z,94.96
2023-01-18T08:10:06.221Z,95.76
2023-01-18T08:12:33.864Z,95.56
2023-01-18T08:15:01.467Z,95.32
2023-01-18T08:17:30.789Z,95.80
2023-01-18T08:19:58.339Z,94.95
2023-01-18T08:22:25.837Z,95.73
2023-01-18T08:24:53.515Z,96.17
2023-01-18T08:27:21.100Z,95.29
2023-01-18T08:29:48.856Z,96.08
2023-01-18T08:32:16.523Z,94.88
2023-01-18T08:34:45.963Z,93.82
2023-01-18T08:37:13.525Z,94.43
2023-01-18T08:39:41.128Z,94.68
2023-01-18T08:42:11.000Z,94.36
2023-01-18T08:44:38.567Z,93.88
2023-01-18T08:47:06.495Z,94.75
2023-01-18T08:49:35.583Z,95.35
2023-01-18T08:52:04.421Z,95.16
2023-01-18T08:54:31.931Z,95.03
2023-01-18T08:56:59.452Z,94.91
2023-01-18T08:59:27.115Z,93.74
2023-01-18T09:01:54.771Z,93.31
2023-01-18T09:04:22.763Z,94.40
2023-01-18T09:06:51.410Z,93.50
2023-01-18T09:09:20.279Z,92.84
2023-01-18T09:11:50.910Z,92.59
2023-01-18T09:14:18.694Z,92.99
2023-01-18T09:16:46.762Z,92.78
2023-01-18T09:19:15.369Z,93.86
2023-01-18T09:21:45.721Z,93.22
2023-01-18T09:24:13.967Z,92.75
2023-01-18T09:26:45.081Z,91.99
2023-01-18T09:29:13.039Z,92.67
2023-01-18T09:31:40.638Z,92.31
2023-01-18T09:34:18.867Z,92.44
2023-01-18T09:36:47.130Z,92.21
2023-01-18T09:39:14.760Z,92.01
2023-01-18T09:41:46.881Z,93.09
2023-01-18T09:44:21.356Z,90.77
2023-01-18T09:46:54.322Z,89.34
2023-01-18T09:49:27.926Z,90.61
2023-01-18T09:52:07.954Z,89.55
2023-01-18T09:54:42.968Z,89.35
2023-01-18T09:57:25.555Z,88.70
2023-01-18T09:59:57.039Z,88.44
2023-01-18T10:02:30.870Z,88.23
2023-01-18T10:05:05.307Z,87.33
2023-01-18T10:07:37.033Z,87.17
2023-01-18T10:10:05.836Z,88.25
2023-01-18T10:12:41.359Z,85.47
2023-01-18T10:15:17.341Z,86.55
2023-01-18T10:17:46.421Z,85.87
2023-01-18T10:20:16.350Z,84.68
2023-01-18T10:22:49.878Z,84.82
2023-01-18T10:25:25.508Z,87.10
2023-01-18T10:28:13.738Z,85.04
2023-01-18T10:30:56.735Z,84.82
2023-01-18T10:33:26.656Z,85.23
2023-01-18T10:35:57.560Z,86.16
2023-01-18T10:38:28.426Z,86.51
2023-01-18T10:40:58.004Z,86.43
2023-01-18T10:43:28.767Z,86.36
2023-01-18T10:45:56.933Z,87.14
2023-01-18T10:48:28.002Z,86.18
2023-01-18T10:50:57.649Z,87.49
2023-01-18T10:53:32.308Z,84.17
2023-01-18T10:56:05.546Z,86.13
2023-01-18T10:58:40.771Z,86.67
2023-01-18T11:01:14.946Z,84.27
2023-01-18T11:03:47.713Z,86.12
2023-01-18T11:06:17.000Z,83.46
2023-01-18T11:08:45.091Z,85.53
2023-01-18T11:11:18.838Z,83.88
2023-01-18T11:13:50.315Z,82.87
2023-01-18T11:16:20.713Z,82.82
2023-01-18T11:19:04.721Z,84.74
2023-01-18T11:21:45.530Z,83.91
2023-01-18T11:24:16.699Z,81.97
2023-01-18T11:27:03.981Z,80.41
2023-01-18T11:29:36.334Z,81.10
2023-01-18T11:32:06.610Z,80.54
2023-01-18T11:34:36.781Z,77.84
2023-01-18T11:37:05.521Z,80.57
2023-01-18T11:39:35.232Z,80.07
2023-01-18T11:42:23.425Z,79.38
2023-01-18T11:45:00.543Z,79.58
2023-01-18T11:47:33.181Z,79.25
2023-01-18T11:50:20.968Z,76.03
2023-01-18T11:52:53.133Z,77.13
2023-01-18T11:55:26.420Z,75.75
2023-01-18T11:57:54.296Z,75.67
2023-01-18T12:00:28.164Z,76.07
2023-01-18T12:03:15.638Z,75.77
2023-01-18T12:05:47.763Z,76.21
2023-01-18T12:08:38.233Z,75.53
2023-01-18T12:11:29.385Z,78.68
2023-01-18T12:14:03.089Z,78.53
2023-01-18T12:16:51.413Z,77.65
2023-01-18T12:19:48.349Z,78.30
2023-01-18T12:22:44.382Z,79.09
2023-01-18T12:25:40.419Z,79.50
2023-01-18T12:28:20.841Z,80.69
2023-01-18T12:31:05.922Z,80.34
2023-01-18T12:33:47.600Z,79.82
2023-01-18T12:36:38.634Z,81.46
2023-01-18T12:39:15.977Z,80.72
2023-01-18T12:41:51.801Z,80.66
2023-01-18T12:44:36.110Z,80.72
2023-01-18T12:47:24.861Z,77.66
2023-01-18T12:49:59.493Z,78.25
2023-01-18T12:52:28.272Z,78.90
2023-01-18T12:55:00.264Z,76.08
2023-01-18T12:57:29.678Z,76.65
2023-01-18T13:00:00.574Z,77.49
2023-01-18T13:02:33.978Z,78.62
2023-01-18T13:05:07.794Z,77.02
2023-01-18T13:07:40.126Z,76.96
2023-01-18T13:10:14.504Z,78.33
2023-01-18T13:12:43.377Z,79.31
2023-01-18T13:15:26.104Z,78.59
2023-01-18T13:18:02.703Z,78.95
2023-01-18T13:20:41.954Z,80.31
2023-01-18T13:23:28.398Z,80.57
2023-01-18T13:26:07.769Z,78.02
2023-01-18T13:28:36.868Z,77.92
2023-01-18T13:31:06.276Z,77.41
2023-01-18T13:33:36.323Z,75.24
2023-01-18T13:36:08.052Z,74.62
2023-01-18T13:38:42.266Z,74.25
2023-01-18T13:41:12.550Z,73.19
2023-01-18T13:44:02.653Z,73.72
2023-01-18T13:46:32.836Z,72.96
2023-01-18T13:49:02.618Z,72.26
2023-01-18T13:51:58.772Z,73.64
2023-01-18T13:54:58.397Z,74.46
2023-01-18T13:57:26.729Z,73.51
2023-01-18T13:59:54.517Z,73.22
2023-01-18T14:02:27.346Z,72.61
2023-01-18T14:05:08.587Z,69.20
2023-01-18T14:07:44.872Z,67.80
2023-01-18T14:10:26.379Z,65.70
2023-01-18T14:12:55.606Z,62.86
2023-01-18T14:15:47.917Z,64.26
2023-01-18T14:18:21.560Z,64.10
2023-01-18T14:20:58.057Z,64.68
2023-01-18T14:23:51.186Z,64.71
2023-01-18T14:26:22.360Z,62.87
2023-01-18T14:28:53.397Z,60.43
2023-01-18T14:31:25.531Z,61.36
2023-01-18T14:33:53.206Z,57.49
2023-01-18T14:36:22.937Z,56.65
2023-01-18T14:39:13.621Z,59.28
2023-01-18T14:41:44.211Z,58.70
2023-01-18T14:44:17.921Z,58.36
2023-01-18T14:46:51.069Z,60.72
2023-01-18T14:49:26.409Z,60.75
2023-01-18T14:51:54.834Z,62.87
2023-01-18T14:54:25.929Z,63.05
2023-01-18T14:57:01.622Z,63.22
2023-01-18T14:59:31.135Z,63.21
2023-01-18T15:02:01.196Z,63.16
2023-01-18T15:04:30.628Z,63.94
2023-01-18T15:07:00.984Z,66.17
2023-01-18T15:09:33.250Z,66.55
2023-01-18T15:12:03.846Z,67.80
2023-01-18T15:14:34.190Z,68.50
2023-01-18T15:17:03.120Z,68.73
2023-01-18T15:19:35.749Z,68.43
2023-01-18T15:22:05.573Z,69.70
2023-01-18T15:24:39.317Z,71.40
2023-01-18T15:27:07.271Z,72.92
2023-01-18T15:29:38.736Z,73.82
2023-01-18T15:32:12.705Z,73.14
2023-01-18T15:34:44.121Z,73.68
2023-01-18T15:37:16.645Z,75.03
2023-01-18T15:39:58.288Z,74.95
2023-01-18T15:42:30.509Z,75.67
2023-01-18T15:44:59.508Z,76.42
2023-01-18T15:47:29.408Z,77.59
2023-01-18T15:49:59.544Z,77.81
2023-01-18T15:52:39.807Z,79.33
2023-01-18T15:55:21.867Z,78.16
2023-01-18T15:58:00.460Z,79.13
2023-01-18T16:00:31.274Z,79.51
2023-01-18T16:02:59.377Z,80.13
2023-01-18T16:05:28.007Z,80.21
2023-01-18T16:08:18.028Z,80.05
2023-01-18T16:10:53.271Z,80.37
2023-01-18T16:13:31.626Z,82.76
2023-01-18T16:16:13.737Z,86.05
2023-01-18T16:18:43.757Z,84.13
2023-01-18T16:21:19.243Z,85.43
2023-01-18T16:23:49.569Z,85.19
2023-01-18T16:26:26.634Z,84.55
2023-01-18T16:28:54.572Z,85.37
2023-01-18T16:31:23.406Z,86.54
2023-01-18T16:33:50.921Z,86.84
2023-01-18T16:36:19.976Z,87.06
2023-01-18T16:38:47.495Z,87.93
2023-01-18T16:41:16.838Z,88.01
2023-01-18T16:43:47.963Z,88.19
2023-01-18T16:46:15.537Z,89.62
2023-01-18T16:48:43.099Z,90.18
2023-01-18T16:51:17.865Z,90.83
2023-01-18T16:53:45.402Z,91.27
2023-01-18T16:56:15.216Z,91.19
2023-01-18T16:58:43.711Z,90.87
2023-01-18T17:01:15.718Z,92.00
2023-01-18T17:03:43.872Z,91.73
2023-01-18T17:06:17.725Z,92.00
2023-01-18T17:08:46.249Z,92.37
2023-01-18T17:11:14.385Z,93.07
2023-01-18T17:13:42.491Z,93.31
2023-01-18T17:16:16.657Z,93.64
2023-01-18T17:18:44.588Z,93.94
2023-01-18T17:21:12.931Z,94.75
2023-01-18T17:23:40.936Z,94.68
2023-01-18T17:26:13.752Z,94.85
2023-01-18T17:28:41.301Z,94.72
2023-01-18T17:31:09.288Z,94.88
2023-01-18T17:33:40.291Z,94.97
2023-01-18T17:36:09.098Z,95.36
2023-01-18T17:38:37.131Z,96.56
2023-01-18T17:41:04.898Z,96.40
2023-01-18T17:43:34.694Z,95.16
2023-01-18T17:46:04.048Z,95.58
2023-01-18T17:48:31.699Z,97.18
2023-01-18T17:51:00.628Z,99.88
2023-01-18T17:53:28.644Z,98.64
2023-01-18T17:55:56.287Z,97.00
2023-01-18T17:58:23.971Z,97.36
2023-01-18T18:00:51.635Z,97.06
2023-01-18T18:03:20.256Z,97.43
2023-01-18T18:05:47.957Z,97.52
2023-01-18T18:08:17.705Z,97.01
2023-01-18T18:10:45.277Z,96.94
2023-01-18T18:13:12.902Z,97.19
2023-01-18T18:15:46.462Z,97.43
2023-01-18T18:18:22.658Z,96.91
2023-01-18T18:20:51.647Z,97.60
2023-01-18T18:23:20.521Z,96.68
2023-01-18T18:25:48.218Z,96.70
2023-01-18T18:28:15.823Z,96.91
2023-01-18T18:30:48.005Z,98.00
2023-01-18T18:33:15.976Z,97.64
2023-01-18T18:35:43.626Z,99.70
2023-01-18T18:38:15.281Z,100.00
2023-01-18T18:40:44.173Z,99.77
2023-01-18T18:43:11.777Z,98.66
2023-01-18T18:45:40.119Z,99.16
2023-01-18T18:48:07.949Z,99.49
2023-01-18T18:50:35.565Z,99.21
2023-01-18T18:53:03.502Z,99.69
2023-01-18T18:55:31.241Z,99.93
2023-01-18T18:58:00.201Z,98.63
2023-01-18T19:00:28.287Z,99.10
2023-01-18T19:02:59.922Z,99.03
2023-01-18T19:05:27.688Z,98.69
2023-01-18T19:07:55.321Z,99.57
2023-01-18T19:10:24.155Z,98.67
2023-01-18T19:12:51.761Z,98.82
2023-01-18T19:15:20.811Z,99.08
2023-01-18T19:17:49.706Z,99.20
2023-01-18T19:20:19.650Z,99.05
2023-01-18T19:22:47.579Z,99.21
2023-01-18T19:25:15.193Z,98.21
2023-01-18T19:27:42.811Z,97.99
2023-01-18T19:30:18.497Z,99.32
2023-01-18T19:32:49.077Z,98.90
2023-01-18T19:35:16.838Z,97.94
2023-01-18T19:37:45.392Z,99.39
2023-01-18T19:40:14.177Z,98.84
2023-01-18T19:42:42.024Z,98.80
2023-01-18T19:45:13.927Z,99.44
2023-01-18T19:47:49.145Z,99.08
2023-01-18T19:50:17.255Z,99.26
2023-01-18T19:52:45.970Z,98.43
2023-01-18T19:55:13.721Z,99.16
2023-01-18T19:57:41.406Z,98.50
2023-01-18T20:00:10.776Z,99.01
2023-01-18T20:02:41.497Z,98.75
2023-01-18T20:05:11.032Z,97.65
2023-01-18T20:07:38.732Z,97.86
2023-01-18T20:10:07.481Z,97.79
2023-01-18T20:12:35.129Z,100.00
2023-01-18T20:15:02.880Z,100.00
2023-01-18T20:17:30.433Z,100.00
2023-01-18T20:19:58.069Z,100.00
2023-01-18T20:22:27.030Z,100.00
2023-01-18T20:24:54.941Z,98.22
2023-01-18T20:27:22.682Z,96.21
2023-01-18T20:29:50.366Z,96.32
2023-01-18T20:32:18.460Z,96.19
2023-01-18T20:34:47.265Z,96.87
2023-01-18T20:37:16.287Z,96.23
2023-01-18T20:39:45.288Z,95.72
2023-01-18T20:42:13.000Z,94.95
2023-01-18T20:44:41.285Z,95.07
2023-01-18T20:47:09.796Z,94.10
2023-01-18T20:49:40.128Z,95.79
2023-01-18T20:52:07.895Z,93.97
2023-01-18T20:54:36.324Z,96.98
2023-01-18T20:57:05.874Z,96.91
2023-01-18T20:59:33.600Z,95.30
2023-01-18T21:02:01.616Z,94.58
2023-01-18T21:04:29.751Z,94.32
2023-01-18T21:06:58.087Z,94.57
2023-01-18T21:09:25.848Z,95.06
2023-01-18T21:11:53.432Z,94.90
2023-01-18T21:14:22.416Z,94.39
2023-01-18T21:16:50.222Z,94.26
2023-01-18T21:19:18.167Z,94.59
2023-01-18T21:21:45.736Z,95.94
2023-01-18T21:24:13.387Z,92.59
2023-01-18T21:26:40.950Z,90.90
2023-01-18T21:29:08.565Z,90.93
2023-01-18T21:31:39.453Z,90.92
2023-01-18T21:34:07.927Z,90.66
2023-01-18T21:36:35.582Z,90.45
2023-01-18T21:39:06.562Z,91.73
2023-01-18T21:41:51.538Z,92.19
2023-01-18T21:44:37.004Z,92.95
2023-01-18T21:47:05.894Z,94.57
2023-01-18T21:50:15.363Z,92.51
2023-01-18T21:52:56.928Z,92.01
2023-01-18T21:55:24.539Z,91.50
2023-01-18T21:58:06.067Z,91.32
2023-01-18T22:00:33.679Z,92.31
2023-01-18T22:03:02.653Z,90.81
2023-01-18T22:05:30.210Z,92.14
2023-01-18T22:07:58.054Z,91.77
2023-01-18T22:10:26.986Z,91.12
2023-01-18T22:12:54.561Z,92.01
2023-01-18T22:15:23.023Z,92.00
2023-01-18T22:17:50.593Z,92.55
2023-01-18T22:20:19.959Z,92.37
2023-01-18T22:22:48.339Z,92.43
2023-01-18T22:25:16.041Z,93.49
2023-01-18T22:27:43.766Z,92.65
2023-01-18T22:30:12.585Z,92.55
2023-01-18T22:32:40.094Z,92.67
2023-01-18T22:35:07.865Z,93.11
2023-01-18T22:37:36.819Z,93.59
2023-01-18T22:40:05.487Z,94.30
2023-01-18T22:42:35.036Z,94.19
2023-01-18T22:45:04.655Z,94.77
2023-01-18T22:47:32.392Z,94.56
2023-01-18T22:49:59.914Z,94.53
2023-01-18T22:52:27.433Z,95.89
2023-01-18T22:54:56.378Z,95.94
2023-01-18T22:57:24.016Z,96.18
2023-01-18T22:59:51.643Z,97.76
2023-01-18T23:02:19.349Z,97.42
2023-01-18T23:04:48.291Z,96.40
2023-01-18T23:07:17.404Z,96.89
2023-01-18T23:09:45.031Z,96.42
2023-01-18T23:12:13.928Z,97.39
2023-01-18T23:14:59.170Z,96.45
2023-01-18T23:17:43.122Z,96.25
2023-01-18T23:20:14.655Z,96.92
2023-01-18T23:22:42.300Z,100.00
2023-01-18T23:25:10.280Z,100.00
2023-01-18T23:27:39.164Z,99.36
2023-01-18T23:30:07.730Z,96.82
2023-01-18T23:32:37.183Z,97.11
2023-01-18T23:35:05.960Z,96.74
2023-01-18T23:37:33.994Z,95.87
2023-01-18T23:40:19.314Z,95.85
2023-01-18T23:43:05.896Z,94.66
2023-01-18T23:45:51.246Z,94.85
2023-01-18T23:48:38.011Z,93.84
2023-01-18T23:51:23.848Z,94.15
2023-01-18T23:54:08.985Z,94.81
2023-01-18T23:56:36.681Z,94.81
2023-01-18T23:59:05.547Z,94.47
